createdAt,value
2022-12-08T00:01:21.211Z,1.05
2022-12-08T00:03:49.677Z,0.92
2022-12-08T00:06:42.072Z,0.82
2022-12-08T00:09:23.443Z,0.76
2022-12-08T00:11:57.070Z,1.01
2022-12-08T00:14:27.576Z,1.93
2022-12-08T00:16:55.674Z,1.00
2022-12-08T00:19:24.570Z,0.79
2022-12-08T00:21:54.870Z,0.36
2022-12-08T00:24:23.800Z,0.05
2022-12-08T00:26:51.760Z,-0.12
2022-12-08T00:29:19.698Z,-0.18
2022-12-08T00:31:47.744Z,-0.17
2022-12-08T00:34:16.338Z,0.02
2022-12-08T00:36:44.693Z,0.13
2022-12-08T00:39:15.357Z,0.30
2022-12-08T00:42:00.444Z,0.24
2022-12-08T00:44:28.446Z,0.14
2022-12-08T00:46:56.178Z,0.30
2022-12-08T00:49:24.815Z,0.36
2022-12-08T00:51:52.910Z,0.37
2022-12-08T00:54:23.010Z,0.29
2022-12-08T00:56:50.771Z,0.29
2022-12-08T00:59:19.271Z,0.27
2022-12-08T01:01:47.156Z,0.09
2022-12-08T01:04:16.898Z,0.03
2022-12-08T01:06:45.626Z,-0.02
2022-12-08T01:09:15.843Z,-0.24
2022-12-08T01:11:46.273Z,-0.13
2022-12-08T01:14:14.568Z,-0.41
2022-12-08T01:16:43.159Z,-0.33
2022-12-08T01:19:12.125Z,-0.50
2022-12-08T01:21:41.026Z,-0.47
2022-12-08T01:24:12.122Z,-0.47
2022-12-08T01:26:40.099Z,-0.18
2022-12-08T01:29:09.552Z,-0.05
2022-12-08T01:31:37.813Z,-0.09
2022-12-08T01:34:06.081Z,-0.20
2022-12-08T01:36:37.113Z,-0.31
2022-12-08T01:39:06.940Z,0.14
2022-12-08T01:41:36.309Z,0.02
2022-12-08T01:44:25.074Z,0.32
2022-12-08T01:46:55.286Z,0.68
2022-12-08T01:49:27.765Z,1.08
2022-12-08T01:51:59.990Z,0.79
2022-12-08T01:54:31.767Z,0.27
2022-12-08T01:57:03.971Z,0.02
2022-12-08T01:59:34.729Z,-0.29
2022-12-08T02:02:03.939Z,-0.07
2022-12-08T02:04:31.718Z,-0.12
2022-12-08T02:07:04.947Z,0.35
2022-12-08T02:09:36.671Z,0.69
2022-12-08T02:12:05.150Z,1.46
2022-12-08T02:14:32.943Z,2.06
2022-12-08T02:17:11.169Z,1.76
2022-12-08T02:20:08.119Z,2.20
2022-12-08T02:22:45.932Z,1.75
2022-12-08T02:25:22.423Z,0.36
2022-12-08T02:28:01.644Z,-0.10
2022-12-08T02:30:39.064Z,-0.20
2022-12-08T02:34:03.429Z,-0.39
2022-12-08T02:36:39.223Z,-0.54
2022-12-08T02:39:21.992Z,-0.52
2022-12-08T02:41:55.576Z,-0.44
2022-12-08T02:44:31.019Z,-0.17
2022-12-08T02:47:03.127Z,-0.01
2022-12-08T02:49:33.510Z,0.39
2022-12-08T02:52:08.898Z,0.22
2022-12-08T02:54:37.731Z,0.18
2022-12-08T02:57:23.303Z,0.21
2022-12-08T03:00:05.103Z,0.13
2022-12-08T03:02:44.739Z,0.64
2022-12-08T03:05:28.829Z,0.72
2022-12-08T03:08:03.906Z,0.48
2022-12-08T03:10:36.720Z,-0.11
2022-12-08T03:13:10.642Z,0.06
2022-12-08T03:15:40.429Z,-0.03
2022-12-08T03:18:10.932Z,-0.10
2022-12-08T03:20:41.570Z,0.18
2022-12-08T03:23:12.387Z,-0.37
2022-12-08T03:25:47.732Z,-0.14
2022-12-08T03:28:15.812Z,-0.29
2022-12-08T03:30:47.049Z,0.05
2022-12-08T03:33:19.691Z,0.05
2022-12-08T03:35:49.275Z,0.57
2022-12-08T03:38:18.688Z,0.29
2022-12-08T03:41:07.899Z,0.34
2022-12-08T03:43:35.657Z,0.39
2022-12-08T03:46:03.448Z,0.24
2022-12-08T03:48:31.182Z,0.42
2022-12-08T03:51:00.253Z,0.37
2022-12-08T03:53:28.131Z,0.89
2022-12-08T03:55:55.849Z,1.71
2022-12-08T03:58:23.581Z,1.83
2022-12-08T04:00:51.391Z,2.12
2022-12-08T04:03:19.174Z,1.78
2022-12-08T04:05:47.561Z,1.69
2022-12-08T04:08:16.723Z,1.95
2022-12-08T04:10:44.568Z,1.68
2022-12-08T04:13:12.392Z,2.06
2022-12-08T04:15:40.104Z,2.38
2022-12-08T04:18:07.921Z,2.39
2022-12-08T04:20:35.603Z,1.07
2022-12-08T04:23:03.370Z,1.00
2022-12-08T04:25:32.664Z,1.39
2022-12-08T04:28:00.409Z,1.27
2022-12-08T04:30:28.220Z,1.66
2022-12-08T04:32:55.956Z,1.99
2022-12-08T04:35:23.870Z,1.53
2022-12-08T04:37:51.852Z,1.23
2022-12-08T04:40:19.882Z,1.79
2022-12-08T04:42:48.980Z,1.82
2022-12-08T04:45:16.809Z,1.39
2022-12-08T04:47:44.692Z,1.26
2022-12-08T04:50:13.102Z,1.00
2022-12-08T04:52:41.336Z,1.50
2022-12-08T04:55:09.920Z,1.49
2022-12-08T04:57:37.919Z,1.36
2022-12-08T05:00:08.443Z,1.75
2022-12-08T05:02:36.740Z,2.02
2022-12-08T05:05:05.104Z,2.21
2022-12-08T05:07:33.009Z,2.45
2022-12-08T05:10:00.853Z,2.12
2022-12-08T05:12:28.759Z,2.16
2022-12-08T05:14:56.475Z,2.45
2022-12-08T05:17:25.529Z,2.08
2022-12-08T05:19:53.324Z,2.22
2022-12-08T05:22:21.080Z,1.82
2022-12-08T05:24:48.804Z,2.03
2022-12-08T05:27:17.031Z,1.77
2022-12-08T05:29:44.723Z,2.15
2022-12-08T05:32:12.460Z,2.27
2022-12-08T05:34:41.629Z,2.01
2022-12-08T05:37:09.636Z,1.84
2022-12-08T05:39:37.475Z,1.31
2022-12-08T05:42:05.571Z,1.54
2022-12-08T05:44:33.356Z,2.00
2022-12-08T05:47:01.099Z,1.17
2022-12-08T05:49:28.863Z,1.47
2022-12-08T05:51:57.944Z,1.05
2022-12-08T05:54:25.676Z,0.89
2022-12-08T05:56:53.381Z,1.33
2022-12-08T05:59:21.146Z,0.66
2022-12-08T06:01:48.934Z,1.07
2022-12-08T06:04:16.718Z,0.97
2022-12-08T06:06:44.475Z,0.71
2022-12-08T06:09:13.640Z,1.02
2022-12-08T06:11:41.372Z,1.22
2022-12-08T06:14:12.061Z,1.05
2022-12-08T06:16:39.964Z,0.74
2022-12-08T06:19:07.877Z,0.59
2022-12-08T06:21:35.619Z,0.63
2022-12-08T06:24:03.323Z,0.77
2022-12-08T06:26:32.410Z,0.95
2022-12-08T06:29:01.096Z,1.19
2022-12-08T06:31:29.264Z,0.91
2022-12-08T06:33:57.232Z,0.72
2022-12-08T06:36:27.836Z,1.00
2022-12-08T06:38:55.684Z,0.92
2022-12-08T06:41:23.856Z,0.45
2022-12-08T06:43:53.090Z,0.76
2022-12-08T06:46:21.626Z,0.62
2022-12-08T06:48:50.582Z,0.94
2022-12-08T06:51:21.156Z,0.76
2022-12-08T06:53:48.908Z,0.67
2022-12-08T06:56:19.947Z,0.46
2022-12-08T06:58:52.523Z,0.64
2022-12-08T07:01:22.283Z,0.34
2022-12-08T07:03:50.088Z,0.37
2022-12-08T07:06:21.616Z,1.00
2022-12-08T07:08:49.353Z,1.52
2022-12-08T07:11:21.582Z,1.54
2022-12-08T07:13:50.261Z,0.59
2022-12-08T07:16:18.090Z,0.34
2022-12-08T07:18:47.392Z,0.87
2022-12-08T07:21:17.551Z,0.99
2022-12-08T07:23:50.167Z,1.28
2022-12-08T07:26:21.945Z,1.51
2022-12-08T07:28:49.683Z,1.23
2022-12-08T07:31:19.982Z,1.09
2022-12-08T07:33:50.202Z,1.39
2022-12-08T07:36:18.011Z,1.19
2022-12-08T07:38:47.303Z,0.98
2022-12-08T07:41:21.676Z,0.95
2022-12-08T07:43:51.498Z,1.14
2022-12-08T07:46:21.932Z,1.35
2022-12-08T07:48:52.417Z,1.88
2022-12-08T07:51:20.422Z,2.04
2022-12-08T07:53:54.263Z,1.53
2022-12-08T07:56:23.194Z,2.07
2022-12-08T07:58:50.907Z,2.30
2022-12-08T08:01:26.567Z,2.44
2022-12-08T08:03:57.683Z,2.13
2022-12-08T08:06:25.811Z,1.34
2022-12-08T08:08:53.581Z,2.11
2022-12-08T08:11:22.069Z,2.38
2022-12-08T08:13:50.376Z,2.72
2022-12-08T08:16:19.217Z,3.13
2022-12-08T08:18:48.869Z,2.92
2022-12-08T08:21:44.301Z,2.78
2022-12-08T08:24:08.647Z,3.61
2022-12-08T08:26:36.879Z,3.66
2022-12-08T08:29:05.213Z,4.68
2022-12-08T08:31:33.068Z,5.16
2022-12-08T08:34:04.925Z,5.29
2022-12-08T08:36:34.359Z,4.91
2022-12-08T08:39:04.330Z,4.47
2022-12-08T08:41:32.598Z,3.63
2022-12-08T08:44:00.333Z,4.40
2022-12-08T08:46:28.191Z,4.50
2022-12-08T08:48:56.133Z,4.81
2022-12-08T08:51:24.126Z,6.47
2022-12-08T08:53:53.374Z,6.88
2022-12-08T08:56:21.235Z,6.27
2022-12-08T08:58:50.100Z,5.85
2022-12-08T09:01:18.677Z,5.94
2022-12-08T09:03:46.795Z,4.44
2022-12-08T09:06:15.943Z,5.67
2022-12-08T09:08:44.376Z,6.08
2022-12-08T09:11:13.691Z,4.48
2022-12-08T09:13:41.561Z,5.05
2022-12-08T09:16:12.388Z,5.73
2022-12-08T09:18:40.257Z,5.93
2022-12-08T09:21:10.266Z,6.11
2022-12-08T09:23:38.121Z,6.45
2022-12-08T09:26:06.599Z,5.08
2022-12-08T09:28:35.872Z,5.22
2022-12-08T09:31:03.973Z,6.22
2022-12-08T09:33:32.182Z,5.79
2022-12-08T09:36:03.963Z,6.19
2022-12-08T09:38:32.542Z,7.31
2022-12-08T09:41:01.313Z,7.62
2022-12-08T09:43:48.321Z,6.89
2022-12-08T09:46:19.326Z,7.70
2022-12-08T09:48:55.991Z,6.07
2022-12-08T09:51:26.076Z,5.88
2022-12-08T09:53:57.661Z,6.74
2022-12-08T09:56:30.005Z,8.47
2022-12-08T09:59:02.591Z,8.72
2022-12-08T10:01:33.101Z,6.16
2022-12-08T10:04:01.991Z,6.18
2022-12-08T10:06:34.492Z,6.76
2022-12-08T10:09:21.200Z,5.75
2022-12-08T10:11:56.734Z,6.08
2022-12-08T10:14:31.139Z,5.13
2022-12-08T10:17:02.179Z,5.24
2022-12-08T10:19:30.912Z,5.52
2022-12-08T10:21:59.030Z,4.46
2022-12-08T10:24:32.723Z,4.76
2022-12-08T10:27:01.383Z,4.09
2022-12-08T10:29:30.558Z,4.29
2022-12-08T10:32:00.628Z,4.48
2022-12-08T10:34:28.455Z,4.15
2022-12-08T10:36:58.934Z,4.18
2022-12-08T10:39:38.368Z,4.48
2022-12-08T10:42:10.608Z,4.48
2022-12-08T10:44:54.466Z,4.76
2022-12-08T10:47:24.100Z,4.76
2022-12-08T10:50:09.516Z,4.74
2022-12-08T10:52:41.220Z,4.72
2022-12-08T10:55:16.181Z,4.74
2022-12-08T10:57:43.980Z,5.01
2022-12-08T11:00:16.660Z,4.67
2022-12-08T11:02:59.616Z,5.10
2022-12-08T11:05:30.489Z,4.83
2022-12-08T11:07:58.929Z,4.75
2022-12-08T11:10:37.994Z,4.35
2022-12-08T11:13:11.504Z,4.93
2022-12-08T11:15:41.526Z,4.63
2022-12-08T11:18:23.236Z,5.02
2022-12-08T11:21:01.221Z,5.25
2022-12-08T11:23:30.359Z,4.74
2022-12-08T11:26:06.038Z,4.90
2022-12-08T11:28:33.955Z,5.14
2022-12-08T11:31:14.268Z,5.19
2022-12-08T11:33:43.894Z,4.44
2022-12-08T11:36:16.578Z,5.31
2022-12-08T11:38:48.247Z,5.64
2022-12-08T11:41:18.860Z,5.13
2022-12-08T11:43:54.128Z,4.71
2022-12-08T11:46:27.895Z,4.03
2022-12-08T11:49:06.395Z,4.79
2022-12-08T11:51:38.596Z,5.70
2022-12-08T11:54:14.851Z,4.45
2022-12-08T11:56:46.212Z,4.21
2022-12-08T11:59:23.009Z,4.17
2022-12-08T12:01:52.497Z,4.67
2022-12-08T12:04:25.755Z,4.76
2022-12-08T12:07:26.779Z,5.12
2022-12-08T12:10:26.501Z,4.50
2022-12-08T12:13:06.094Z,3.36
2022-12-08T12:16:06.664Z,3.54
2022-12-08T12:18:40.257Z,3.94
2022-12-08T12:21:13.462Z,4.42
2022-12-08T12:23:45.391Z,4.68
2022-12-08T12:26:20.936Z,3.90
2022-12-08T12:28:53.079Z,3.84
2022-12-08T12:31:25.152Z,4.34
2022-12-08T12:33:56.600Z,4.29
2022-12-08T12:36:25.731Z,4.32
2022-12-08T12:39:03.218Z,4.09
2022-12-08T12:41:37.817Z,3.91
2022-12-08T12:44:24.398Z,4.42
2022-12-08T12:46:58.401Z,3.79
2022-12-08T12:50:07.764Z,4.06
2022-12-08T12:52:46.747Z,3.84
2022-12-08T12:55:22.481Z,4.28
2022-12-08T12:57:53.471Z,4.79
2022-12-08T13:00:23.042Z,4.74
2022-12-08T13:02:52.838Z,4.86
2022-12-08T13:05:26.176Z,4.90
2022-12-08T13:07:56.799Z,4.65
2022-12-08T13:10:27.611Z,4.90
2022-12-08T13:13:08.747Z,4.57
2022-12-08T13:15:39.583Z,4.54
2022-12-08T13:18:08.675Z,4.53
2022-12-08T13:20:47.393Z,4.74
2022-12-08T13:23:29.266Z,4.17
2022-12-08T13:26:18.564Z,4.61
2022-12-08T13:29:14.126Z,4.67
2022-12-08T13:31:49.858Z,4.32
2022-12-08T13:34:22.750Z,4.54
2022-12-08T13:37:09.095Z,4.56
2022-12-08T13:39:43.349Z,4.77
2022-12-08T13:42:20.595Z,4.55
2022-12-08T13:48:13.628Z,4.64
2022-12-08T13:54:42.489Z,4.93
2022-12-08T13:59:25.448Z,5.33
2022-12-08T14:01:57.045Z,5.41
2022-12-08T14:07:14.777Z,5.06
2022-12-08T14:09:44.436Z,5.07
2022-12-08T14:12:19.491Z,5.32
2022-12-08T14:15:05.443Z,4.71
2022-12-08T14:17:34.620Z,4.36
2022-12-08T14:20:15.010Z,4.34
2022-12-08T14:22:43.142Z,3.91
2022-12-08T14:25:15.849Z,3.64
2022-12-08T14:27:44.297Z,3.38
2022-12-08T14:30:21.099Z,3.40
2022-12-08T14:32:50.639Z,3.33
2022-12-08T14:35:26.357Z,3.40
2022-12-08T14:37:56.554Z,3.32
2022-12-08T14:40:30.756Z,3.41
2022-12-08T14:43:13.733Z,3.47
2022-12-08T14:45:48.610Z,3.36
2022-12-08T14:48:20.775Z,3.51
2022-12-08T14:50:59.610Z,3.36
2022-12-08T14:53:31.340Z,3.23
2022-12-08T14:56:00.551Z,3.62
2022-12-08T14:58:31.356Z,3.34
2022-12-08T15:01:01.201Z,3.11
2022-12-08T15:03:32.078Z,3.11
2022-12-08T15:06:04.200Z,3.03
2022-12-08T15:08:32.740Z,3.08
2022-12-08T15:11:28.249Z,4.10
2022-12-08T15:13:56.224Z,3.47
2022-12-08T15:16:27.914Z,3.48
2022-12-08T15:19:05.457Z,3.37
2022-12-08T15:21:39.078Z,3.33
2022-12-08T15:24:07.562Z,3.33
2022-12-08T15:26:42.401Z,3.37
2022-12-08T15:29:17.706Z,3.81
2022-12-08T15:31:45.622Z,3.79
2022-12-08T15:34:13.445Z,4.21
2022-12-08T15:36:42.927Z,5.02
2022-12-08T15:39:22.559Z,4.93
2022-12-08T15:41:51.689Z,5.05
2022-12-08T15:44:19.580Z,4.78
2022-12-08T15:46:47.349Z,4.91
2022-12-08T15:49:18.622Z,4.89
2022-12-08T15:51:46.586Z,4.66
2022-12-08T15:54:14.400Z,4.49
2022-12-08T15:57:10.822Z,4.40
2022-12-08T15:59:35.404Z,4.41
2022-12-08T16:02:03.225Z,4.46
2022-12-08T16:07:26.985Z,4.36
2022-12-08T16:09:56.170Z,4.32
2022-12-08T16:18:28.487Z,4.14
2022-12-08T16:23:45.677Z,4.59
2022-12-08T16:26:35.613Z,3.74
2022-12-08T16:29:05.542Z,3.19
2022-12-08T16:31:35.149Z,3.61
2022-12-08T16:34:03.122Z,3.62
2022-12-08T16:36:30.862Z,3.47
2022-12-08T16:38:58.653Z,3.09
2022-12-08T16:41:44.124Z,3.23
2022-12-08T16:44:11.921Z,2.86
2022-12-08T16:46:41.039Z,3.00
2022-12-08T16:49:10.119Z,3.31
2022-12-08T16:51:37.941Z,3.47
2022-12-08T16:54:05.790Z,3.88
2022-12-08T16:56:33.889Z,4.36
2022-12-08T16:59:02.664Z,4.44
2022-12-08T17:01:30.550Z,4.54
2022-12-08T17:04:30.930Z,4.69
2022-12-08T17:06:47.717Z,4.54
2022-12-08T17:09:15.515Z,4.74
2022-12-08T17:11:44.001Z,4.60
2022-12-08T17:14:12.296Z,4.69
2022-12-08T17:16:40.205Z,4.81
2022-12-08T17:19:09.573Z,5.08
2022-12-08T17:21:37.377Z,4.36
2022-12-08T17:24:05.330Z,4.95
2022-12-08T17:26:33.161Z,5.13
2022-12-08T17:29:02.812Z,4.93
2022-12-08T17:31:32.237Z,5.04
2022-12-08T17:34:00.901Z,5.00
2022-12-08T17:36:30.435Z,5.56
2022-12-08T17:39:00.552Z,5.76
2022-12-08T17:41:29.185Z,5.85
2022-12-08T17:43:57.044Z,5.34
2022-12-08T17:46:24.959Z,5.17
2022-12-08T17:48:53.000Z,5.30
2022-12-08T17:51:20.838Z,4.32
2022-12-08T17:53:49.967Z,3.68
2022-12-08T17:56:20.064Z,3.51
2022-12-08T17:58:54.045Z,4.29
2022-12-08T18:01:22.893Z,4.07
2022-12-08T18:03:50.835Z,4.24
2022-12-08T18:06:18.571Z,4.07
2022-12-08T18:08:46.401Z,3.68
2022-12-08T18:11:18.212Z,3.73
2022-12-08T18:13:46.647Z,3.76
2022-12-08T18:16:15.200Z,4.17
2022-12-08T18:18:43.071Z,4.46
2022-12-08T18:21:11.717Z,4.40
2022-12-08T18:23:40.493Z,3.46
2022-12-08T18:26:09.508Z,3.52
2022-12-08T18:28:39.024Z,3.18
2022-12-08T18:31:10.160Z,3.45
2022-12-08T18:33:38.249Z,4.02
2022-12-08T18:36:09.312Z,3.59
2022-12-08T18:38:37.327Z,3.46
2022-12-08T18:41:06.743Z,4.42
2022-12-08T18:43:34.720Z,4.57
2022-12-08T18:46:05.547Z,5.17
2022-12-08T18:48:33.389Z,5.58
2022-12-08T18:51:01.149Z,5.70
2022-12-08T18:53:29.059Z,5.76
2022-12-08T18:55:56.777Z,4.96
2022-12-08T18:58:26.767Z,5.23
2022-12-08T19:00:54.541Z,5.12
2022-12-08T19:03:23.643Z,5.35
2022-12-08T19:05:51.444Z,5.20
2022-12-08T19:08:19.519Z,5.09
2022-12-08T19:10:47.364Z,4.52
2022-12-08T19:13:15.035Z,4.63
2022-12-08T19:15:42.736Z,4.84
2022-12-08T19:18:10.577Z,4.82
2022-12-08T19:20:39.640Z,4.90
2022-12-08T19:23:07.432Z,4.61
2022-12-08T19:25:35.180Z,4.69
2022-12-08T19:28:03.386Z,4.60
2022-12-08T19:30:32.203Z,4.80
2022-12-08T19:33:00.129Z,5.25
2022-12-08T19:35:30.291Z,5.08
2022-12-08T19:37:59.463Z,5.26
2022-12-08T19:40:41.384Z,5.21
2022-12-08T19:43:34.476Z,5.19
2022-12-08T19:46:08.271Z,5.37
2022-12-08T19:48:38.061Z,5.46
2022-12-08T19:51:06.263Z,5.51
2022-12-08T19:53:35.383Z,5.74
2022-12-08T19:56:03.260Z,5.70
2022-12-08T19:58:31.114Z,5.62
2022-12-08T20:00:59.000Z,5.10
2022-12-08T20:03:26.939Z,5.15
2022-12-08T20:05:54.855Z,4.84
2022-12-08T20:08:22.781Z,4.54
2022-12-08T20:10:55.827Z,4.70
2022-12-08T20:13:41.012Z,4.74
2022-12-08T20:16:09.880Z,4.74
2022-12-08T20:18:38.429Z,4.97
2022-12-08T20:21:07.622Z,5.08
2022-12-08T20:23:35.804Z,5.00
2022-12-08T20:26:07.176Z,5.15
2022-12-08T20:28:35.359Z,5.02
2022-12-08T20:31:03.648Z,4.95
2022-12-08T20:33:34.468Z,5.00
2022-12-08T20:36:07.425Z,4.96
2022-12-08T20:38:35.202Z,5.07
2022-12-08T20:41:02.949Z,5.01
2022-12-08T20:43:32.005Z,4.60
2022-12-08T20:45:59.852Z,4.51
2022-12-08T20:48:27.862Z,4.65
2022-12-08T20:50:55.899Z,4.69
2022-12-08T20:53:23.805Z,4.69
2022-12-08T20:55:51.841Z,4.91
2022-12-08T20:58:19.657Z,5.02
2022-12-08T21:00:49.207Z,5.03
2022-12-08T21:03:20.966Z,5.27
2022-12-08T21:05:50.314Z,5.27
2022-12-08T21:08:19.225Z,5.19
2022-12-08T21:10:53.487Z,5.14
2022-12-08T21:13:21.546Z,4.85
2022-12-08T21:15:51.015Z,4.67
2022-12-08T21:18:18.990Z,4.62
2022-12-08T21:20:48.211Z,4.50
2022-12-08T21:23:17.160Z,4.74
2022-12-08T21:25:47.280Z,4.83
2022-12-08T21:28:15.398Z,5.23
2022-12-08T21:30:43.823Z,5.08
2022-12-08T21:33:13.024Z,5.14
2022-12-08T21:35:41.262Z,4.75
2022-12-08T21:38:09.296Z,4.90
2022-12-08T21:40:37.710Z,4.81
2022-12-08T21:43:05.706Z,4.92
2022-12-08T21:45:35.010Z,4.70
2022-12-08T21:48:10.842Z,3.99
2022-12-08T21:50:41.092Z,3.55
2022-12-08T21:53:09.100Z,3.80
2022-12-08T21:55:37.218Z,3.30
2022-12-08T21:58:05.596Z,2.94
2022-12-08T22:00:33.491Z,3.34
2022-12-08T22:03:01.565Z,3.89
2022-12-08T22:05:29.586Z,3.56
2022-12-08T22:07:58.853Z,2.91
2022-12-08T22:10:26.733Z,3.17
2022-12-08T22:12:54.607Z,3.03
2022-12-08T22:15:22.429Z,2.90
2022-12-08T22:17:50.421Z,3.43
2022-12-08T22:20:18.708Z,2.94
2022-12-08T22:22:46.907Z,3.16
2022-12-08T22:25:16.192Z,3.60
2022-12-08T22:27:44.021Z,3.48
2022-12-08T22:30:12.727Z,3.61
2022-12-08T22:32:40.776Z,3.69
2022-12-08T22:35:09.466Z,3.85
2022-12-08T22:37:37.482Z,3.88
2022-12-08T22:40:06.680Z,3.52
2022-12-08T22:42:35.840Z,3.55
2022-12-08T22:45:03.549Z,3.55
2022-12-08T22:47:31.254Z,3.59
2022-12-08T22:49:58.926Z,3.46
2022-12-08T22:52:26.626Z,3.25
2022-12-08T22:54:54.452Z,3.24
2022-12-08T22:57:22.314Z,2.95
2022-12-08T22:59:51.461Z,2.78
2022-12-08T23:02:19.279Z,2.65
2022-12-08T23:04:47.310Z,2.24
2022-12-08T23:07:15.279Z,2.62
2022-12-08T23:09:43.505Z,3.00
2022-12-08T23:12:11.235Z,3.40
2022-12-08T23:14:39.065Z,2.84
2022-12-08T23:17:08.331Z,3.26
2022-12-08T23:19:36.916Z,3.33
2022-12-08T23:22:04.683Z,3.59
2022-12-08T23:24:32.491Z,3.71
2022-12-08T23:27:00.302Z,3.64
2022-12-08T23:29:28.002Z,3.61
2022-12-08T23:31:55.993Z,3.70
2022-12-08T23:34:25.103Z,3.74
2022-12-08T23:36:52.976Z,3.72
2022-12-08T23:39:24.127Z,3.72
2022-12-08T23:41:52.236Z,3.72
2022-12-08T23:44:20.234Z,3.59
2022-12-08T23:46:48.083Z,3.60
2022-12-08T23:49:17.001Z,3.41
2022-12-08T23:51:46.155Z,3.08
2022-12-08T23:54:14.208Z,2.69
2022-12-08T23:56:42.210Z,2.54
2022-12-08T23:59:10.474Z,2.73
